Weather observations for the past three days for
Saguache, Saguache Municipal Airport
Imperial (Metric)
Date Time (mdt) Wind (mph) Vis. (mi.) Weather Sky Cond. Temperature (ºF) Relative Humidity Wind Chill (°F) Heat Index (°F) Pressure Precipitation (in)
Air Dwpt 6 hour altimeter (in) sea level (mb) 1 hr 3 hr 6 hr
Max. Min.
10 06:15 W 6 10.00 Fair CLR 32 21.2 64% 27 30.3 0.0
10 05:55 Calm 10.00 Fair CLR 37.4 23 56% 30.29 0.0
10 05:35 Calm 10.00 Fair CLR 35.6 23 60% 30.28 0.0
10 05:15 E 5 10.00 Fair CLR 37.4 23 56% 34 30.28 0.0
10 04:55 NW 7 10.00 Fair CLR 37.4 23 56% 33 30.27 0.0
10 04:35 W 8 10.00 Fair CLR 42.8 30.2 61% 39 30.26 0.0
10 04:15 NW 3 10.00 Fair CLR 41 26.6 57% 30.26 0.0
10 03:55 NW 6 10.00 Fair CLR 42.8 28.4 57% 40 30.25 0.0
10 03:35 NW 13 10.00 Fair CLR 44.6 30.2 57% 39 30.24 0.0
10 03:15 NW 14 10.00 Fair CLR 44.6 28.4 53% 39 30.23 0.0
10 02:55 W 10 10.00 Fair CLR 39.2 14 36% 33 30.23 0.0
10 02:35 W 9 10.00 Fair CLR 41 14 33% 36 30.21 0.0
10 02:15 W 9 10.00 Fair CLR 46.4 14 27% 42 30.2 0.0
10 01:55 NW 10 10.00 Fair CLR 42.8 12.2 29% 38 30.2 0.0
10 01:35 NW 8 10.00 Fair CLR 46.4 14 27% 43 30.19 0.0
10 01:15 NW 9 10.00 Fair CLR 48.2 14 25% 45 30.19 0.0
10 00:55 W 10 10.00 Fair CLR 48.2 12.2 23% 44 30.19 0.0
10 00:35 NW 10 10.00 Fair CLR 50 12.2 22% 46 30.19 0.0
10 00:15 N 9 10.00 Fair CLR 48.2 12.2 23% 45 30.18 0.0
09 23:55 NW 12 10.00 Fair CLR 48.2 12.2 23% 44 30.17 0.0
09 23:35 W 13 10.00 Fair CLR 50 14 24% 46 30.17 0.0
09 23:15 W 14 10.00 Fair CLR 50 12.2 22% 45 30.17 0.0
09 22:55 W 12 10.00 Fair CLR 50 12.2 22% 46 30.17 0.0
09 22:15 W 7 10.00 Fair CLR 51.8 14 22% 30.17 0.0
09 21:55 Calm 10.00 Fair CLR 53.6 10.4 18% 30.16 0.0
09 21:35 NW 7 10.00 Fair CLR 59 12.2 16% 30.15 0.0
09 21:15 NW 10 10.00 Fair CLR 59 12.2 16% 30.14 0.0
09 20:55 NW 14 G 18 10.00 Fair CLR 59 12.2 16% 30.13 0.0
09 20:35 NW 14 10.00 Fair CLR 60.8 12.2 15% 30.13 0.0
09 20:15 NW 14 10.00 Fair CLR 60.8 10.4 13% 30.13 0.0
09 19:55 NW 12 10.00 Fair CLR 60.8 10.4 13% 30.12 0.0
09 19:35 NW 14 G 21 10.00 Fair CLR 62.6 8.6 12% 30.11 0.0
09 19:15 W 15 G 24 10.00 Fair CLR 64.4 10.4 12% 30.11 0.0
09 18:55 NW 17 G 22 10.00 Fair CLR 64.4 6.8 10% 30.1 0.0
09 18:35 W 17 G 28 10.00 Fair CLR 64.4 10.4 12% 30.1 0.0
09 18:15 NW 22 G 28 10.00 Fair and Breezy CLR 69.8 10.4 10% 30.1 0.0
09 17:55 NW 24 G 31 10.00 Fair and Breezy CLR 69.8 5 8% 30.1 0.0
09 17:35 NW 22 G 30 10.00 Fair and Breezy CLR 71.6 3.2 7% 30.09 0.0
09 17:15 NW 21 G 29 10.00 Fair and Breezy CLR 71.6 3.2 7% 30.09 0.0
09 16:55 W 22 G 29 10.00 Fair and Breezy CLR 69.8 5 8% 30.08 0.0
09 16:35 W 23 G 30 10.00 Fair and Breezy CLR 69.8 1.4 6% 30.08 0.0
09 16:15 NW 23 G 35 10.00 Fair and Breezy CLR 71.6 5 7% 30.08 0.0
09 15:55 W 21 G 33 10.00 Fair and Breezy CLR 71.6 6.8 8% 30.08 0.0
09 15:35 NW 28 G 37 10.00 Fair and Windy CLR 71.6 8.6 8% 30.09 0.0
09 15:15 NW 24 G 36 10.00 Fair and Breezy CLR 73.4 8.6 8% 30.09 0.0
09 14:55 NW 22 G 31 10.00 Fair and Breezy CLR 71.6 12.2 10% 30.1 0.0
09 14:35 NW 32 G 39 10.00 Fair and Windy CLR 71.6 8.6 8% 30.1 0.0
09 14:15 W 20 G 35 10.00 Fair CLR 71.6 8.6 8% 30.11 0.0
09 13:55 W 28 G 36 10.00 Fair and Windy CLR 71.6 10.4 9% 30.11 0.0
09 13:35 W 18 G 30 10.00 Fair CLR 71.6 12.2 10% 30.12 0.0
09 13:15 NW 22 G 32 10.00 Fair and Breezy CLR 71.6 14 11% 30.13 0.0
09 12:55 NW 14 G 29 10.00 Fair CLR 69.8 17.6 13% 30.13 0.0
09 12:35 NW 20 G 31 10.00 Fair CLR 69.8 15.8 12% 30.13 0.0
09 12:15 NW 25 G 31 10.00 Fair and Breezy CLR 69.8 17.6 13% 30.13 0.0
09 11:55 NW 18 G 30 10.00 Fair CLR 69.8 21.2 16% 30.13 0.0
09 11:35 NW 22 G 31 10.00 Fair and Breezy CLR 68 19.4 16% 30.14 0.0
09 11:15 NW 14 G 24 10.00 Fair CLR 66.2 19.4 17% 30.15 0.0
09 10:55 NW 14 G 26 10.00 Fair CLR 66.2 19.4 17% 30.15 0.0
09 10:35 NW 13 G 25 10.00 Fair CLR 66.2 19.4 17% 30.15 0.0
09 10:15 W 12 G 18 10.00 Fair CLR 64.4 21.2 19% 30.15 0.0
09 09:55 NW 9 10.00 Fair CLR 60.8 23 23% 30.16 0.0
09 09:35 NW 8 10.00 Fair CLR 60.8 24.8 25% 30.17 0.0
09 09:15 NW 8 G 17 10.00 Fair CLR 59 24.8 27% 30.17 0.0
09 08:55 NW 10 G 16 10.00 Fair CLR 57.2 24.8 29% 30.17 0.0
09 08:35 W 7 10.00 Fair CLR 55.4 26.6 33% 30.18 0.0
09 08:15 W 6 10.00 Fair CLR 51.8 26.6 38% 30.18 0.0
09 07:55 NW 7 10.00 Fair CLR 44.6 24.8 46% 41 30.18 0.0
09 07:35 NW 9 10.00 Fair CLR 42.8 24.8 49% 38 30.18 0.0
09 07:15 NW 10 10.00 Fair CLR 44.6 26.6 49% 40 30.18 0.0
09 06:55 W 9 10.00 Fair CLR 44.6 23 43% 40 30.17 0.0
09 06:35 NW 9 10.00 Fair CLR 41 23 49% 36 30.16 0.0
09 06:15 NW 7 10.00 Fair CLR 39.2 23 52% 35 30.15 0.0
09 05:55 NW 12 10.00 Fair CLR 41 23 49% 35 30.14 0.0
09 05:35 NW 13 10.00 Fair CLR 41 23 49% 34 30.14 0.0
09 05:15 NW 9 10.00 Fair CLR 42.8 23 46% 38 30.13 0.0
09 04:55 NW 9 10.00 Fair CLR 42.8 23 46% 38 30.13 0.0
09 04:37 NW 7 10.00 Fair CLR 42.8 23 46% 39 30.13 0.0
09 04:15 W 9 10.00 Fair CLR 42.8 23 46% 38 30.13 0.0
09 03:55 W 10 10.00 Fair CLR 44.6 23 43% 40 30.12 0.0
09 03:35 W 10 10.00 Fair CLR 46.4 23 40% 42 30.11 0.0
09 03:15 W 12 10.00 Fair CLR 46.4 23 40% 42 30.11 0.0
09 02:55 W 18 10.00 Fair CLR 50 23 35% 44 30.1 0.0
09 02:35 W 3 10.00 Fair CLR 48.2 23 37% 30.11 0.0
09 02:15 W 7 10.00 Fair CLR 50 23 35% 48 30.11 0.0
09 01:55 W 9 10.00 Fair CLR 48.2 23 37% 45 30.11 0.0
09 01:35 W 9 10.00 Fair CLR 50 23 35% 47 30.11 0.0
09 01:15 W 5 10.00 Fair CLR 48.2 23 37% 47 30.12 0.0
09 00:55 W 6 10.00 Fair CLR 51.8 23 32% 30.13 0.0
09 00:35 NW 14 G 23 10.00 Fair CLR 53.6 23 30% 30.12 0.0
09 00:15 NW 12 G 20 10.00 Fair CLR 53.6 23 30% 30.12 0.0
08 23:55 W 18 G 23 10.00 Fair CLR 53.6 23 30% 30.11 0.0
08 23:35 W 20 10.00 Fair CLR 53.6 24.8 33% 30.11 0.0
08 23:16 W 20 10.00 Fair CLR 55.4 23 28% 30.11 0.0
08 22:55 W 16 10.00 Fair CLR 53.6 23 30% 30.13 0.0
08 22:35 W 18 10.00 Fair CLR 55.4 23 28% 30.13 0.0
08 22:15 W 16 10.00 Fair CLR 53.6 24.8 33% 30.13 0.0
08 21:55 W 16 10.00 Fair CLR 53.6 24.8 33% 30.13 0.0
08 21:15 W 13 G 22 10.00 Fair CLR 59 23 25% 30.11 0.0
08 20:55 W 10 10.00 Fair CLR 57.2 23 27% 30.11 0.0
08 20:35 W 14 G 18 10.00 Fair CLR 60.8 21.2 22% 30.1 0.0
08 20:15 NW 20 G 24 10.00 Fair CLR 62.6 21.2 20% 30.09 0.0
08 19:55 NW 21 G 24 10.00 Fair and Breezy CLR 62.6 21.2 20% 30.08 0.0
08 19:35 NW 17 10.00 Fair CLR 64.4 19.4 18% 30.07 0.0
08 18:55 NW 14 G 24 10.00 Fair CLR 68 17.6 14% 30.07 0.0
08 18:35 NW 13 G 21 10.00 Fair CLR 68 15.8 13% 30.07 0.0
08 18:15 NW 16 G 21 10.00 Fair CLR 69.8 14 12% 30.07 0.0
08 17:55 NW 22 G 28 10.00 Fair and Breezy CLR 69.8 14 12% 30.07 0.0
08 17:35 W 18 G 26 10.00 Fair CLR 69.8 12.2 11% 30.07 0.0
08 17:15 W 21 G 29 10.00 Fair and Breezy CLR 71.6 12.2 10% 30.07 0.0
08 16:55 W 17 G 25 10.00 Fair CLR 71.6 17.6 13% 30.06 0.0
08 16:35 W 17 G 28 10.00 Fair CLR 71.6 17.6 13% 30.06 0.0
08 16:15 W 20 G 28 10.00 Fair CLR 71.6 17.6 13% 30.06 0.0
08 15:55 NW 20 G 30 10.00 Partly Cloudy SCT120 73.4 19.4 13% 30.06 0.0
08 15:35 W 23 G 30 10.00 Fair and Breezy CLR 73.4 21.2 14% 30.07 0.0
08 15:15 SW 15 G 23 10.00 Fair CLR 71.6 21.2 15% 30.07 0.0
08 14:35 W 16 G 23 10.00 Partly Cloudy SCT100 69.8 21.2 16% 30.08 0.0
08 13:55 W 9 G 24 10.00 Partly Cloudy SCT100 69.8 23 17% 30.1 0.0
08 13:35 NW 8 G 21 10.00 Fair CLR 68 21.2 17% 30.1 0.0
08 13:15 NW 21 G 25 10.00 Fair and Breezy CLR 69.8 23 17% 30.1 0.0
08 12:55 W 13 G 22 10.00 Fair CLR 68 23 18% 30.11 0.0
08 12:35 N 12 G 22 10.00 Partly Cloudy SCT090 68 23 18% 30.12 0.0
08 12:15 W 13 G 18 10.00 Partly Cloudy SCT090 64.4 24.8 22% 30.13 0.0
08 11:55 N 6 G 22 10.00 Fair CLR 64.4 24.8 22% 30.13 0.0
08 11:35 NW 10 G 21 10.00 Fair CLR 64.4 26.6 24% 30.14 0.0
08 11:15 NW 10 G 28 10.00 Fair CLR 64.4 26.6 24% 30.14 0.0
08 10:55 NW 10 10.00 Fair CLR 62.6 24.8 24% 30.15 0.0
08 10:35 NW 15 G 23 10.00 Fair CLR 62.6 24.8 24% 30.15 0.0
08 10:15 NW 16 G 20 10.00 Fair CLR 60.8 26.6 27% 30.15 0.0
08 09:55 W 14 G 21 10.00 Fair CLR 59 26.6 29% 30.16 0.0
08 09:15 Calm 10.00 Fair CLR 57.2 28.4 33% 30.16 0.0
08 08:55 Calm 10.00 Fair CLR 53.6 28.4 38% 30.16 0.0
08 08:35 Calm 10.00 Fair CLR 53.6 28.4 38% 30.17 0.0
08 08:15 W 6 10.00 Fair CLR 51.8 30.2 44% 30.17 0.0
08 07:55 W 7 10.00 Fair CLR 46.4 30.2 53% 43 30.17 0.0
08 07:35 NW 9 10.00 Fair CLR 42.8 30.2 61% 38 30.17 0.0
08 07:15 NW 8 10.00 Fair CLR 41 28.4 61% 36 30.17 0.0
08 06:55 NW 9 10.00 Fair CLR 37.4 28.4 70% 31 30.16 0.0
08 06:35 NW 8 10.00 Fair CLR 35.6 28.4 75% 30 30.16 0.0
08 06:15 NW 8 10.00 Fair CLR 32 26.6 80% 25 30.16 0.0
08 05:55 NW 7 10.00 Fair CLR 35.6 28.4 75% 31 30.14 0.0
08 05:35 NW 9 10.00 Fair CLR 33.8 26.6 75% 27 30.14 0.0
08 05:15 NW 10 10.00 Fair CLR 35.6 28.4 75% 29 30.15 0.0
08 04:55 NW 8 10.00 Partly Cloudy SCT080 35.6 28.4 75% 30 30.14 0.0
08 04:35 NW 6 10.00 Fair CLR 37.4 28.4 70% 33 30.15 0.0
08 04:15 NW 5 10.00 Fair CLR 37.4 28.4 70% 34 30.15 0.0
08 03:55 Calm 10.00 Partly Cloudy SCT090 37.4 28.4 70% 30.14 0.0
08 03:35 NW 6 10.00 Partly Cloudy SCT080 37.4 28.4 70% 33 30.15 0.0
08 03:15 N 10 10.00 Fair CLR 37.4 28.4 70% 31 30.15 0.0
08 02:55 N 7 10.00 Fair CLR 37.4 28.4 70% 33 30.15 0.0
08 02:35 NW 6 10.00 Partly Cloudy SCT085 41 26.6 57% 38 30.15 0.0
08 02:15 NW 6 10.00 Overcast OVC085 42.8 28.4 57% 40 30.16 0.0
08 01:55 NW 5 10.00 Overcast SCT085 OVC100 42.8 28.4 57% 41 30.16 0.0
08 01:35 W 6 10.00 Overcast SCT090 OVC110 46.4 28.4 50% 44 30.16 0.0
08 01:15 W 10 10.00 Overcast OVC110 46.4 28.4 50% 42 30.17 0.0
08 00:55 Calm 10.00 Mostly Cloudy SCT085 BKN100 46.4 28.4 50% 30.17 0.0
08 00:35 W 9 10.00 Mostly Cloudy BKN090 44.6 28.4 53% 40 30.16 0.0
08 00:15 W 6 10.00 Overcast SCT080 OVC090 46.4 28.4 50% 44 30.16 0.0
07 23:55 NW 3 10.00 Mostly Cloudy SCT080 BKN090 44.6 26.6 49% 30.16 0.0
07 23:35 Calm 10.00 Partly Cloudy SCT110 46.4 28.4 50% 30.16 0.0
07 23:15 NW 6 10.00 Overcast SCT075 SCT100 OVC110 46.4 28.4 50% 44 30.16 0.0
07 22:55 W 9 10.00 Overcast OVC110 46.4 28.4 50% 42 30.16 0.0
07 22:35 W 9 10.00 Overcast OVC120 46.4 26.6 46% 42 30.16 0.0
07 22:15 W 14 10.00 Partly Cloudy SCT120 48.2 26.6 43% 43 30.16 0.0
07 21:55 W 14 10.00 Fair CLR 46.4 26.6 46% 41 30.16 0.0
07 21:35 W 13 10.00 Fair CLR 46.4 24.8 43% 41 30.16 0.0
07 21:15 W 10 10.00 Fair CLR 46.4 26.6 46% 42 30.15 0.0
07 20:55 W 8 10.00 Fair CLR 48.2 24.8 40% 45 30.14 0.0
07 20:35 NW 7 10.00 Fair CLR 51.8 24.8 35% 30.14 0.0
07 20:15 NW 9 10.00 Partly Cloudy SCT110 51.8 24.8 35% 30.13 0.0
07 19:55 NW 12 G 20 10.00 Mostly Cloudy BKN120 55.4 24.8 31% 30.13 0.0
07 19:35 NW 13 G 17 10.00 Overcast OVC120 57.2 24.8 29% 30.12 0.0
07 19:15 NW 12 10.00 Overcast OVC110 59 23 25% 30.11 0.0
07 18:55 NW 14 G 20 10.00 Overcast OVC100 59 23 25% 30.11 0.0
07 18:35 NW 17 G 23 10.00 Overcast OVC100 59 23 25% 30.11 0.0
07 18:15 NW 14 G 24 10.00 Overcast BKN100 OVC120 59 23 25% 30.11 0.0
07 17:55 NW 15 G 21 10.00 Overcast SCT100 OVC120 60.8 24.8 25% 30.11 0.0
07 17:35 NW 15 G 22 10.00 Mostly Cloudy SCT100 BKN120 60.8 24.8 25% 30.11 0.0
07 17:15 NW 15 G 23 10.00 Overcast OVC110 60.8 24.8 25% 30.11 0.0
07 16:55 W 14 G 24 10.00 Overcast OVC110 60.8 23 23% 30.11 0.0
07 16:35 NW 20 10.00 Overcast OVC095 62.6 23 22% 30.11 0.0
07 16:15 W 15 G 20 10.00 Overcast OVC095 60.8 23 23% 30.11 0.0
07 15:55 NW 12 G 23 10.00 Mostly Cloudy BKN095 62.6 23 22% 30.11 0.0
07 15:35 NW 7 G 21 10.00 Fair CLR 62.6 21.2 20% 30.13 0.0
07 15:15 S 6 10.00 Fair CLR 60.8 23 23% 30.13 0.0
07 14:55 SE 6 10.00 Fair CLR 60.8 23 23% 30.14 0.0
07 14:35 SE 5 10.00 Fair CLR 59 21.2 23% 30.15 0.0
07 14:15 S 10 G 18 10.00 Fair CLR 59 23 25% 30.16 0.0
07 13:55 S 8 10.00 Fair CLR 57.2 23 27% 30.17 0.0
07 13:35 SE 9 10.00 Fair CLR 55.4 21.2 26% 30.18 0.0
07 13:15 SE 10 10.00 Fair CLR 53.6 21.2 28% 30.2 0.0
07 12:55 S 9 10.00 Fair CLR 53.6 21.2 28% 30.21 0.0
07 12:35 S 9 10.00 Fair CLR 51.8 21.2 30% 30.21 0.0
07 12:15 S 9 10.00 Fair CLR 51.8 21.2 30% 30.23 0.0
07 11:55 Calm 10.00 Fair CLR 50 21.2 32% 30.23 0.0
07 11:35 SE 7 10.00 Fair CLR 48.2 21.2 34% 46 30.25 0.0
07 11:15 E 7 10.00 Fair CLR 46.4 19.4 34% 43 30.26 0.0
07 10:55 E 5 10.00 Fair CLR 46.4 19.4 34% 45 30.26 0.0
07 10:35 SE 3 10.00 Fair CLR 44.6 17.6 34% 30.27 0.0
07 10:15 S 6 10.00 Fair CLR 42.8 17.6 36% 40 30.28 0.0
07 09:55 SE 7 10.00 Fair CLR 41 17.6 39% 37 30.29 0.0
07 09:35 E 6 10.00 Fair CLR 41 21.2 45% 38 30.3 0.0
07 09:15 E 3 10.00 Fair CLR 39.2 21.2 48% 30.3 0.0
07 08:55 E 8 10.00 Fair CLR 37.4 21.2 52% 32 30.3 0.0
07 08:35 E 6 10.00 Fair CLR 35.6 21.2 56% 31 30.3 0.0
07 08:15 E 9 10.00 Fair CLR 35.6 21.2 56% 29 30.3 0.0
07 07:55 W 10 10.00 Fair CLR 35.6 19.4 52% 29 30.29 0.0
07 07:15 W 10 10.00 Fair CLR 32 19.4 60% 24 30.28 0.0
07 06:55 W 13 10.00 Fair CLR 32 17.6 55% 23 30.27 0.0
Date Time (mdt) Wind (mph) Vis. (mi.) Weather Sky Cond. Air Dwpt Max. Min. Relative Humidity Wind Chill (°F) Heat Index (°F) altimeter (in) sea level (mb) 1 hr 3 hr 6 hr
6 hour
Temperature (ºF) Pressure Precipitation (in)